sensor_id;sensor_type;location;lat;lon;timestamp;pressure;altitude;pressure_sealevel;temperature;humidity
4398;BME280;2213;49.720;7.296;2023-02-22T00:01:22;98093.41;;;3.97;100.00
4398;BME280;2213;49.720;7.296;2023-02-22T00:04:05;98091.00;;;3.95;100.00
4398;BME280;2213;49.720;7.296;2023-02-22T00:06:37;98092.38;;;3.90;100.00
4398;BME280;2213;49.720;7.296;2023-02-22T00:09:06;98088.06;;;3.81;100.00
4398;BME280;2213;49.720;7.296;2023-02-22T00:11:36;98084.66;;;3.80;100.00
4398;BME280;2213;49.720;7.296;2023-02-22T00:14:06;98086.44;;;3.80;100.00
4398;BME280;2213;49.720;7.296;2023-02-22T00:16:35;98084.78;;;3.79;100.00
4398;BME280;2213;49.720;7.296;2023-02-22T00:19:05;98084.78;;;3.79;100.00
4398;BME280;2213;49.720;7.296;2023-02-22T00:21:35;98083.47;;;3.75;100.00
4398;BME280;2213;49.720;7.296;2023-02-22T00:24:05;98081.06;;;3.64;100.00
4398;BME280;2213;49.720;7.296;2023-02-22T00:26:51;98071.53;;;3.64;100.00
4398;BME280;2213;49.720;7.296;2023-02-22T00:29:23;98076.56;;;3.66;100.00
4398;BME280;2213;49.720;7.296;2023-02-22T00:31:52;98081.78;;;3.56;100.00
4398;BME280;2213;49.720;7.296;2023-02-22T00:34:24;98085.84;;;3.59;100.00
4398;BME280;2213;49.720;7.296;2023-02-22T00:36:54;98089.91;;;3.61;100.00
4398;BME280;2213;49.720;7.296;2023-02-22T00:39:24;98082.00;;;3.63;100.00
4398;BME280;2213;49.720;7.296;2023-02-22T00:41:53;98079.72;;;3.60;100.00
4398;BME280;2213;49.720;7.296;2023-02-22T00:44:23;98082.44;;;3.58;100.00
4398;BME280;2213;49.720;7.296;2023-02-22T00:46:53;98089.00;;;3.52;100.00
4398;BME280;2213;49.720;7.296;2023-02-22T00:49:24;98079.47;;;3.53;100.00
4398;BME280;2213;49.720;7.296;2023-02-22T00:51:54;98079.97;;;3.29;100.00
4398;BME280;2213;49.720;7.296;2023-02-22T00:54:23;98082.31;;;3.23;100.00
4398;BME280;2213;49.720;7.296;2023-02-22T00:56:53;98078.72;;;3.33;100.00
4398;BME280;2213;49.720;7.296;2023-02-22T00:59:24;98067.34;;;3.26;100.00
4398;BME280;2213;49.720;7.296;2023-02-22T01:01:54;98073.00;;;3.39;100.00
4398;BME280;2213;49.720;7.296;2023-02-22T01:04:25;98069.19;;;3.43;100.00
4398;BME280;2213;49.720;7.296;2023-02-22T01:06:54;98069.72;;;3.37;100.00
4398;BME280;2213;49.720;7.296;2023-02-22T01:09:24;98062.16;;;3.26;100.00
4398;BME280;2213;49.720;7.296;2023-02-22T01:11:55;98075.78;;;3.19;100.00
4398;BME280;2213;49.720;7.296;2023-02-22T01:14:26;98068.38;;;3.33;100.00
4398;BME280;2213;49.720;7.296;2023-02-22T01:16:56;98067.84;;;3.39;100.00
4398;BME280;2213;49.720;7.296;2023-02-22T01:19:27;98060.94;;;3.21;100.00
4398;BME280;2213;49.720;7.296;2023-02-22T01:21:56;98066.28;;;3.10;100.00
4398;BME280;2213;49.720;7.296;2023-02-22T01:24:26;98062.50;;;3.04;100.00
4398;BME280;2213;49.720;7.296;2023-02-22T01:26:55;98057.97;;;3.16;100.00
4398;BME280;2213;49.720;7.296;2023-02-22T01:29:25;98061.94;;;3.00;100.00
4398;BME280;2213;49.720;7.296;2023-02-22T01:31:55;98063.06;;;2.98;100.00
4398;BME280;2213;49.720;7.296;2023-02-22T01:34:27;98061.13;;;3.00;100.00
4398;BME280;2213;49.720;7.296;2023-02-22T01:36:58;98063.75;;;2.90;100.00
4398;BME280;2213;49.720;7.296;2023-02-22T01:39:28;98057.88;;;2.98;100.00
4398;BME280;2213;49.720;7.296;2023-02-22T01:41:57;98055.41;;;3.06;100.00
4398;BME280;2213;49.720;7.296;2023-02-22T01:44:30;98052.44;;;3.01;100.00
4398;BME280;2213;49.720;7.296;2023-02-22T01:47:03;98056.28;;;2.87;100.00
4398;BME280;2213;49.720;7.296;2023-02-22T01:49:38;98050.69;;;2.82;100.00
4398;BME280;2213;49.720;7.296;2023-02-22T01:52:15;98043.78;;;2.83;100.00
4398;BME280;2213;49.720;7.296;2023-02-22T01:54:51;98044.84;;;2.90;100.00
4398;BME280;2213;49.720;7.296;2023-02-22T01:57:26;98036.97;;;2.91;100.00
4398;BME280;2213;49.720;7.296;2023-02-22T02:00:07;98038.88;;;2.89;100.00
4398;BME280;2213;49.720;7.296;2023-02-22T02:02:41;98035.31;;;3.00;100.00
4398;BME280;2213;49.720;7.296;2023-02-22T02:05:13;98032.06;;;2.98;100.00
4398;BME280;2213;49.720;7.296;2023-02-22T02:07:44;98033.94;;;2.96;100.00
4398;BME280;2213;49.720;7.296;2023-02-22T02:10:14;98029.50;;;2.79;100.00
4398;BME280;2213;49.720;7.296;2023-02-22T02:12:48;98025.97;;;2.80;100.00
4398;BME280;2213;49.720;7.296;2023-02-22T02:15:22;98030.28;;;2.89;100.00
4398;BME280;2213;49.720;7.296;2023-02-22T02:17:55;98023.53;;;2.88;100.00
4398;BME280;2213;49.720;7.296;2023-02-22T02:20:32;98026.78;;;2.90;100.00
4398;BME280;2213;49.720;7.296;2023-02-22T02:23:37;98030.44;;;2.87;100.00
4398;BME280;2213;49.720;7.296;2023-02-22T02:26:58;98019.44;;;2.95;100.00
4398;BME280;2213;49.720;7.296;2023-02-22T02:33:10;98010.59;;;2.97;100.00
4398;BME280;2213;49.720;7.296;2023-02-22T02:35:52;98016.41;;;2.99;100.00
4398;BME280;2213;49.720;7.296;2023-02-22T02:38:33;98008.13;;;2.96;100.00
4398;BME280;2213;49.720;7.296;2023-02-22T02:41:12;98008.94;;;2.96;100.00
4398;BME280;2213;49.720;7.296;2023-02-22T02:43:50;98007.59;;;2.92;100.00
4398;BME280;2213;49.720;7.296;2023-02-22T02:46:28;98004.88;;;2.94;100.00
4398;BME280;2213;49.720;7.296;2023-02-22T02:49:07;98000.00;;;2.81;100.00
4398;BME280;2213;49.720;7.296;2023-02-22T02:51:44;98005.44;;;2.88;100.00
4398;BME280;2213;49.720;7.296;2023-02-22T02:54:17;97995.78;;;2.90;100.00
4398;BME280;2213;49.720;7.296;2023-02-22T02:56:49;97997.84;;;2.86;100.00
4398;BME280;2213;49.720;7.296;2023-02-22T02:59:43;97988.31;;;2.87;100.00
4398;BME280;2213;49.720;7.296;2023-02-22T03:02:37;97990.34;;;2.93;100.00
4398;BME280;2213;49.720;7.296;2023-02-22T03:05:36;97992.25;;;2.91;100.00
4398;BME280;2213;49.720;7.296;2023-02-22T03:08:17;97984.50;;;2.91;100.00
4398;BME280;2213;49.720;7.296;2023-02-22T03:10:59;97983.44;;;2.84;100.00
4398;BME280;2213;49.720;7.296;2023-02-22T03:13:41;97975.59;;;2.66;100.00
4398;BME280;2213;49.720;7.296;2023-02-22T03:16:19;97979.00;;;2.67;100.00
4398;BME280;2213;49.720;7.296;2023-02-22T03:18:57;97980.34;;;2.71;100.00
4398;BME280;2213;49.720;7.296;2023-02-22T03:21:43;97972.63;;;2.71;100.00
4398;BME280;2213;49.720;7.296;2023-02-22T03:24:21;97979.00;;;2.67;100.00
4398;BME280;2213;49.720;7.296;2023-02-22T03:27:00;97973.44;;;2.62;100.00
4398;BME280;2213;49.720;7.296;2023-02-22T03:29:33;97974.69;;;2.48;100.00
4398;BME280;2213;49.720;7.296;2023-02-22T03:32:11;97974.28;;;2.52;100.00
4398;BME280;2213;49.720;7.296;2023-02-22T03:34:49;97974.00;;;2.56;100.00
4398;BME280;2213;49.720;7.296;2023-02-22T03:37:25;97971.28;;;2.47;100.00
4398;BME280;2213;49.720;7.296;2023-02-22T03:39:59;97965.19;;;2.48;100.00
4398;BME280;2213;49.720;7.296;2023-02-22T03:42:47;97965.16;;;2.58;100.00
4398;BME280;2213;49.720;7.296;2023-02-22T03:45:21;97957.41;;;2.58;100.00
4398;BME280;2213;49.720;7.296;2023-02-22T03:48:01;97960.41;;;2.53;100.00
4398;BME280;2213;49.720;7.296;2023-02-22T03:50:36;97963.66;;;2.56;100.00
4398;BME280;2213;49.720;7.296;2023-02-22T03:53:08;97956.19;;;2.62;100.00
4398;BME280;2213;49.720;7.296;2023-02-22T03:55:38;97954.97;;;2.57;100.00
4398;BME280;2213;49.720;7.296;2023-02-22T03:58:11;97955.53;;;2.60;100.00
4398;BME280;2213;49.720;7.296;2023-02-22T04:00:42;97957.81;;;2.63;100.00
4398;BME280;2213;49.720;7.296;2023-02-22T04:03:12;97955.25;;;2.63;100.00
4398;BME280;2213;49.720;7.296;2023-02-22T04:05:41;97948.97;;;2.66;100.00
4398;BME280;2213;49.720;7.296;2023-02-22T04:08:13;97951.84;;;2.63;100.00
4398;BME280;2213;49.720;7.296;2023-02-22T04:10:42;97954.03;;;2.48;100.00
4398;BME280;2213;49.720;7.296;2023-02-22T04:13:13;97950.34;;;2.50;100.00
4398;BME280;2213;49.720;7.296;2023-02-22T04:15:43;97943.84;;;2.56;100.00
4398;BME280;2213;49.720;7.296;2023-02-22T04:18:13;97948.19;;;2.56;100.00
4398;BME280;2213;49.720;7.296;2023-02-22T04:20:42;97949.81;;;2.57;100.00
4398;BME280;2213;49.720;7.296;2023-02-22T04:23:14;97943.31;;;2.52;100.00
4398;BME280;2213;49.720;7.296;2023-02-22T04:25:45;97945.44;;;2.57;100.00
4398;BME280;2213;49.720;7.296;2023-02-22T04:28:15;97934.19;;;2.58;100.00
4398;BME280;2213;49.720;7.296;2023-02-22T04:30:44;97938.78;;;2.64;100.00
4398;BME280;2213;49.720;7.296;2023-02-22T04:33:14;97932.41;;;2.59;100.00
4398;BME280;2213;49.720;7.296;2023-02-22T04:35:44;97930.50;;;2.61;100.00
4398;BME280;2213;49.720;7.296;2023-02-22T04:38:16;97929.28;;;2.65;100.00
4398;BME280;2213;49.720;7.296;2023-02-22T04:40:46;97924.81;;;2.67;100.00
4398;BME280;2213;49.720;7.296;2023-02-22T04:43:17;97929.16;;;2.66;100.00
4398;BME280;2213;49.720;7.296;2023-02-22T04:45:46;97914.47;;;2.67;100.00
4398;BME280;2213;49.720;7.296;2023-02-22T04:48:16;97923.72;;;2.60;100.00
4398;BME280;2213;49.720;7.296;2023-02-22T04:50:46;97921.44;;;2.57;100.00
4398;BME280;2213;49.720;7.296;2023-02-22T04:53:21;97921.81;;;2.62;100.00
4398;BME280;2213;49.720;7.296;2023-02-22T04:55:50;97913.41;;;2.60;100.00
4398;BME280;2213;49.720;7.296;2023-02-22T04:58:21;97907.44;;;2.59;100.00
4398;BME280;2213;49.720;7.296;2023-02-22T05:00:50;97904.97;;;2.58;100.00
4398;BME280;2213;49.720;7.296;2023-02-22T05:03:21;97911.91;;;2.67;100.00
4398;BME280;2213;49.720;7.296;2023-02-22T05:05:52;97907.41;;;2.69;100.00
4398;BME280;2213;49.720;7.296;2023-02-22T05:08:22;97917.22;;;2.56;100.00
4398;BME280;2213;49.720;7.296;2023-02-22T05:10:52;97909.47;;;2.56;100.00
4398;BME280;2213;49.720;7.296;2023-02-22T05:13:21;97912.88;;;2.56;100.00
4398;BME280;2213;49.720;7.296;2023-02-22T05:15:51;97901.44;;;2.59;100.00
4398;BME280;2213;49.720;7.296;2023-02-22T05:18:21;97902.56;;;2.56;100.00
4398;BME280;2213;49.720;7.296;2023-02-22T05:20:50;97901.56;;;2.57;100.00
4398;BME280;2213;49.720;7.296;2023-02-22T05:23:22;97901.44;;;2.59;100.00
4398;BME280;2213;49.720;7.296;2023-02-22T05:25:51;97899.53;;;2.61;100.00
4398;BME280;2213;49.720;7.296;2023-02-22T05:28:22;97897.41;;;2.56;100.00
4398;BME280;2213;49.720;7.296;2023-02-22T05:30:51;97899.69;;;2.59;100.00
4398;BME280;2213;49.720;7.296;2023-02-22T05:33:20;97899.81;;;2.58;100.00
4398;BME280;2213;49.720;7.296;2023-02-22T05:35:51;97901.44;;;2.59;100.00
4398;BME280;2213;49.720;7.296;2023-02-22T05:38:24;97904.19;;;2.47;100.00
4398;BME280;2213;49.720;7.296;2023-02-22T05:40:54;97899.59;;;2.41;100.00
4398;BME280;2213;49.720;7.296;2023-02-22T05:43:25;97904.75;;;2.41;100.00
4398;BME280;2213;49.720;7.296;2023-02-22T05:45:55;97900.69;;;2.39;100.00
4398;BME280;2213;49.720;7.296;2023-02-22T05:48:25;97899.63;;;2.32;100.00
4398;BME280;2213;49.720;7.296;2023-02-22T05:50:56;97897.59;;;2.35;100.00
4398;BME280;2213;49.720;7.296;2023-02-22T05:53:26;97891.34;;;2.28;100.00
4398;BME280;2213;49.720;7.296;2023-02-22T05:55:57;97893.94;;;2.28;100.00
4398;BME280;2213;49.720;7.296;2023-02-22T05:58:26;97886.84;;;2.30;100.00
4398;BME280;2213;49.720;7.296;2023-02-22T06:00:56;97895.00;;;2.35;100.00
4398;BME280;2213;49.720;7.296;2023-02-22T06:03:25;97888.50;;;2.31;100.00
4398;BME280;2213;49.720;7.296;2023-02-22T06:05:54;97885.75;;;2.33;100.00
4398;BME280;2213;49.720;7.296;2023-02-22T06:08:27;97891.34;;;2.28;100.00
4398;BME280;2213;49.720;7.296;2023-02-22T06:10:56;97892.28;;;2.27;100.00
4398;BME280;2213;49.720;7.296;2023-02-22T06:13:25;97887.97;;;2.18;100.00
4398;BME280;2213;49.720;7.296;2023-02-22T06:15:55;97893.69;;;2.22;100.00
4398;BME280;2213;49.720;7.296;2023-02-22T06:18:25;97888.25;;;2.25;100.00
4398;BME280;2213;49.720;7.296;2023-02-22T06:20:58;97899.63;;;2.22;100.00
4398;BME280;2213;49.720;7.296;2023-02-22T06:23:30;97900.06;;;2.18;100.00
4398;BME280;2213;49.720;7.296;2023-02-22T06:25:59;97893.13;;;2.18;100.00
4398;BME280;2213;49.720;7.296;2023-02-22T06:28:29;97892.06;;;2.11;100.00
4398;BME280;2213;49.720;7.296;2023-02-22T06:31:00;97901.66;;;2.19;100.00
4398;BME280;2213;49.720;7.296;2023-02-22T06:33:29;97895.03;;;2.16;100.00
4398;BME280;2213;49.720;7.296;2023-02-22T06:35:59;97902.66;;;2.08;100.00
4398;BME280;2213;49.720;7.296;2023-02-22T06:38:31;97905.63;;;2.13;100.00
4398;BME280;2213;49.720;7.296;2023-02-22T06:41:01;97901.81;;;2.17;100.00
4398;BME280;2213;49.720;7.296;2023-02-22T06:43:31;97913.22;;;2.15;100.00
4398;BME280;2213;49.720;7.296;2023-02-22T06:46:01;97908.19;;;2.13;100.00
4398;BME280;2213;49.720;7.296;2023-02-22T06:48:32;97910.41;;;2.08;100.00
4398;BME280;2213;49.720;7.296;2023-02-22T06:51:06;97916.22;;;2.10;100.00
4398;BME280;2213;49.720;7.296;2023-02-22T06:53:38;97915.28;;;2.11;100.00
4398;BME280;2213;49.720;7.296;2023-02-22T06:56:09;97918.13;;;2.08;100.00
4398;BME280;2213;49.720;7.296;2023-02-22T06:58:39;97917.16;;;2.09;100.00
4398;BME280;2213;49.720;7.296;2023-02-22T07:01:09;97921.66;;;2.07;100.00
4398;BME280;2213;49.720;7.296;2023-02-22T07:03:40;97923.94;;;2.10;100.00
4398;BME280;2213;49.720;7.296;2023-02-22T07:06:10;97928.72;;;2.15;100.00
4398;BME280;2213;49.720;7.296;2023-02-22T07:08:41;97928.56;;;2.16;100.00
4398;BME280;2213;49.720;7.296;2023-02-22T07:11:12;97921.50;;;2.09;100.00
4398;BME280;2213;49.720;7.296;2023-02-22T07:13:43;97925.03;;;2.08;100.00
4398;BME280;2213;49.720;7.296;2023-02-22T07:16:12;97928.28;;;2.10;100.00
4398;BME280;2213;49.720;7.296;2023-02-22T07:18:42;97924.63;;;2.12;100.00
4398;BME280;2213;49.720;7.296;2023-02-22T07:21:11;97931.13;;;2.16;100.00
4398;BME280;2213;49.720;7.296;2023-02-22T07:23:50;97920.81;;;2.16;100.00
4398;BME280;2213;49.720;7.296;2023-02-22T07:26:20;97933.31;;;2.21;100.00
4398;BME280;2213;49.720;7.296;2023-02-22T07:28:50;97930.31;;;2.25;100.00
4398;BME280;2213;49.720;7.296;2023-02-22T07:31:21;97931.94;;;2.26;100.00
4398;BME280;2213;49.720;7.296;2023-02-22T07:33:52;97928.00;;;2.22;100.00
4398;BME280;2213;49.720;7.296;2023-02-22T07:36:22;97927.06;;;2.23;100.00
4398;BME280;2213;49.720;7.296;2023-02-22T07:38:53;97930.03;;;2.28;100.00
4398;BME280;2213;49.720;7.296;2023-02-22T07:41:24;97929.47;;;2.34;100.00
4398;BME280;2213;49.720;7.296;2023-02-22T07:43:54;97939.00;;;2.34;100.00
4398;BME280;2213;49.720;7.296;2023-02-22T07:46:24;97927.84;;;2.33;100.00
4398;BME280;2213;49.720;7.296;2023-02-22T07:48:53;97930.59;;;2.32;100.00
4398;BME280;2213;49.720;7.296;2023-02-22T07:51:24;97928.13;;;2.30;100.00
4398;BME280;2213;49.720;7.296;2023-02-22T07:53:56;97922.69;;;2.33;100.00
4398;BME280;2213;49.720;7.296;2023-02-22T07:56:26;97928.38;;;2.37;100.00
4398;BME280;2213;49.720;7.296;2023-02-22T07:58:55;97930.03;;;2.38;100.00
4398;BME280;2213;49.720;7.296;2023-02-22T08:01:25;97930.28;;;2.44;100.00
4398;BME280;2213;49.720;7.296;2023-02-22T08:03:54;97917.78;;;2.49;100.00
4398;BME280;2213;49.720;7.296;2023-02-22T08:06:24;97914.63;;;2.56;100.00
4398;BME280;2213;49.720;7.296;2023-02-22T08:08:56;97922.38;;;2.56;100.00
4398;BME280;2213;49.720;7.296;2023-02-22T08:11:26;97925.63;;;2.58;100.00
4398;BME280;2213;49.720;7.296;2023-02-22T08:13:56;97908.09;;;2.61;100.00
4398;BME280;2213;49.720;7.296;2023-02-22T08:16:26;97920.72;;;2.64;100.00
4398;BME280;2213;49.720;7.296;2023-02-22T08:18:56;97912.84;;;2.66;100.00
4398;BME280;2213;49.720;7.296;2023-02-22T08:21:26;97909.97;;;2.69;100.00
4398;BME280;2213;49.720;7.296;2023-02-22T08:23:58;97909.84;;;2.70;100.00
4398;BME280;2213;49.720;7.296;2023-02-22T08:26:29;97905.22;;;2.74;100.00
4398;BME280;2213;49.720;7.296;2023-02-22T08:28:59;97904.94;;;2.77;100.00
4398;BME280;2213;49.720;7.296;2023-02-22T08:31:29;97902.72;;;2.82;100.00
4398;BME280;2213;49.720;7.296;2023-02-22T08:33:59;97905.69;;;2.87;100.00
4398;BME280;2213;49.720;7.296;2023-02-22T08:36:30;97908.81;;;2.90;100.00
4398;BME280;2213;49.720;7.296;2023-02-22T08:39:02;97908.94;;;2.98;100.00
4398;BME280;2213;49.720;7.296;2023-02-22T08:41:32;97907.00;;;3.00;100.00
4398;BME280;2213;49.720;7.296;2023-02-22T08:44:02;97906.72;;;3.03;100.00
4398;BME280;2213;49.720;7.296;2023-02-22T08:46:32;97902.06;;;3.07;100.00
4398;BME280;2213;49.720;7.296;2023-02-22T08:49:03;97898.25;;;3.11;100.00
4398;BME280;2213;49.720;7.296;2023-02-22T08:51:35;97901.19;;;3.16;100.00
4398;BME280;2213;49.720;7.296;2023-02-22T08:54:06;97897.38;;;3.20;100.00
4398;BME280;2213;49.720;7.296;2023-02-22T08:56:36;97900.19;;;3.27;100.00
4398;BME280;2213;49.720;7.296;2023-02-22T08:59:06;97896.88;;;3.34;100.00
4398;BME280;2213;49.720;7.296;2023-02-22T09:01:35;97896.97;;;3.42;100.00
4398;BME280;2213;49.720;7.296;2023-02-22T09:04:06;97893.66;;;3.50;100.00
4398;BME280;2213;49.720;7.296;2023-02-22T09:06:34;97892.91;;;3.58;100.00
4398;BME280;2213;49.720;7.296;2023-02-22T09:09:06;97889.75;;;3.64;100.00
4398;BME280;2213;49.720;7.296;2023-02-22T09:11:35;97892.41;;;3.72;100.00
4398;BME280;2213;49.720;7.296;2023-02-22T09:14:05;97877.13;;;3.78;100.00
4398;BME280;2213;49.720;7.296;2023-02-22T09:16:36;97880.72;;;3.85;100.00
4398;BME280;2213;49.720;7.296;2023-02-22T09:19:06;97877.25;;;3.94;100.00
4398;BME280;2213;49.720;7.296;2023-02-22T09:21:36;97871.34;;;4.02;100.00
4398;BME280;2213;49.720;7.296;2023-02-22T09:24:08;97874.66;;;4.12;100.00
4398;BME280;2213;49.720;7.296;2023-02-22T09:26:38;97873.09;;;4.19;100.00
4398;BME280;2213;49.720;7.296;2023-02-22T09:29:10;97868.75;;;4.28;100.00
4398;BME280;2213;49.720;7.296;2023-02-22T09:31:41;97874.81;;;4.36;100.00
4398;BME280;2213;49.720;7.296;2023-02-22T09:34:11;97863.72;;;4.44;100.00
4398;BME280;2213;49.720;7.296;2023-02-22T09:36:42;97863.91;;;4.50;100.00
4398;BME280;2213;49.720;7.296;2023-02-22T09:39:16;97868.16;;;4.60;100.00
4398;BME280;2213;49.720;7.296;2023-02-22T09:41:56;97861.38;;;4.67;100.00
4398;BME280;2213;49.720;7.296;2023-02-22T09:44:36;97858.03;;;4.74;100.00
4398;BME280;2213;49.720;7.296;2023-02-22T09:47:15;97860.00;;;4.80;100.00
4398;BME280;2213;49.720;7.296;2023-02-22T09:49:57;97852.41;;;4.87;100.00
4398;BME280;2213;49.720;7.296;2023-02-22T09:52:36;97853.59;;;4.92;100.00
4398;BME280;2213;49.720;7.296;2023-02-22T09:55:24;97848.59;;;4.99;100.00
4398;BME280;2213;49.720;7.296;2023-02-22T09:58:02;97847.94;;;5.05;100.00
4398;BME280;2213;49.720;7.296;2023-02-22T10:00:36;97850.56;;;5.13;100.00
4398;BME280;2213;49.720;7.296;2023-02-22T10:03:21;97853.34;;;5.20;100.00
4398;BME280;2213;49.720;7.296;2023-02-22T10:05:57;97852.56;;;5.27;100.00
4398;BME280;2213;49.720;7.296;2023-02-22T10:08:32;97841.53;;;5.33;100.00
4398;BME280;2213;49.720;7.296;2023-02-22T10:11:18;97845.75;;;5.42;100.00
4398;BME280;2213;49.720;7.296;2023-02-22T10:14:00;97839.16;;;5.48;100.00
4398;BME280;2213;49.720;7.296;2023-02-22T10:16:40;97833.31;;;5.54;100.00
4398;BME280;2213;49.720;7.296;2023-02-22T10:19:26;97824.72;;;5.62;100.00
4398;BME280;2213;49.720;7.296;2023-02-22T10:22:20;97827.31;;;5.70;100.00
4398;BME280;2213;49.720;7.296;2023-02-22T10:24:59;97824.09;;;5.76;100.00
4398;BME280;2213;49.720;7.296;2023-02-22T10:27:38;97825.22;;;5.81;100.00
4398;BME280;2213;49.720;7.296;2023-02-22T10:30:19;97819.41;;;5.87;100.00
4398;BME280;2213;49.720;7.296;2023-02-22T10:33:02;97815.19;;;5.94;100.00
4398;BME280;2213;49.720;7.296;2023-02-22T10:35:36;97811.78;;;6.02;100.00
4398;BME280;2213;49.720;7.296;2023-02-22T10:38:16;97806.41;;;6.12;100.00
4398;BME280;2213;49.720;7.296;2023-02-22T10:40:52;97819.53;;;6.18;100.00
4398;BME280;2213;49.720;7.296;2023-02-22T10:43:26;97814.34;;;6.26;100.00
4398;BME280;2213;49.720;7.296;2023-02-22T10:46:00;97808.31;;;6.34;100.00
4398;BME280;2213;49.720;7.296;2023-02-22T10:48:37;97809.91;;;6.43;100.00
4398;BME280;2213;49.720;7.296;2023-02-22T10:51:09;97813.31;;;6.51;100.00
4398;BME280;2213;49.720;7.296;2023-02-22T10:53:40;97815.06;;;6.59;100.00
4398;BME280;2213;49.720;7.296;2023-02-22T10:56:15;97807.53;;;6.72;100.00
4398;BME280;2213;49.720;7.296;2023-02-22T10:58:53;97803.44;;;6.86;100.00
4398;BME280;2213;49.720;7.296;2023-02-22T11:01:32;97805.94;;;7.02;100.00
4398;BME280;2213;49.720;7.296;2023-02-22T11:04:10;97805.56;;;7.13;100.00
4398;BME280;2213;49.720;7.296;2023-02-22T11:06:43;97814.13;;;7.22;100.00
4398;BME280;2213;49.720;7.296;2023-02-22T11:09:15;97806.72;;;7.33;100.00
4398;BME280;2213;49.720;7.296;2023-02-22T11:11:47;97801.13;;;7.44;100.00
4398;BME280;2213;49.720;7.296;2023-02-22T11:14:28;97800.72;;;7.55;100.00
4398;BME280;2213;49.720;7.296;2023-02-22T11:17:00;97798.34;;;7.69;100.00
4398;BME280;2213;49.720;7.296;2023-02-22T11:19:34;97798.28;;;7.77;100.00
4398;BME280;2213;49.720;7.296;2023-02-22T11:22:12;97799.59;;;7.95;100.00
4398;BME280;2213;49.720;7.296;2023-02-22T11:24:48;97790.19;;;8.09;100.00
4398;BME280;2213;49.720;7.296;2023-02-22T11:27:29;97788.56;;;8.23;100.00
4398;BME280;2213;49.720;7.296;2023-02-22T11:30:19;97785.22;;;8.51;100.00
4398;BME280;2213;49.720;7.296;2023-02-22T11:32:55;97776.03;;;8.55;100.00
4398;BME280;2213;49.720;7.296;2023-02-22T11:35:37;97775.31;;;8.62;100.00
4398;BME280;2213;49.720;7.296;2023-02-22T11:38:16;97773.88;;;8.74;100.00
4398;BME280;2213;49.720;7.296;2023-02-22T11:41:10;97765.16;;;8.81;100.00
4398;BME280;2213;49.720;7.296;2023-02-22T11:43:42;97761.00;;;8.87;100.00
4398;BME280;2213;49.720;7.296;2023-02-22T11:46:16;97760.53;;;8.98;100.00
4398;BME280;2213;49.720;7.296;2023-02-22T11:48:57;97757.06;;;9.12;100.00
4398;BME280;2213;49.720;7.296;2023-02-22T11:51:42;97749.75;;;9.22;100.00
4398;BME280;2213;49.720;7.296;2023-02-22T11:55:05;97747.44;;;9.34;100.00
4398;BME280;2213;49.720;7.296;2023-02-22T11:57:54;97752.91;;;9.39;100.00
4398;BME280;2213;49.720;7.296;2023-02-22T12:00:39;97755.22;;;9.48;100.00
4398;BME280;2213;49.720;7.296;2023-02-22T12:06:44;97747.34;;;9.70;100.00
4398;BME280;2213;49.720;7.296;2023-02-22T12:09:23;97754.25;;;9.77;100.00
4398;BME280;2213;49.720;7.296;2023-02-22T12:12:08;97744.25;;;9.81;100.00
4398;BME280;2213;49.720;7.296;2023-02-22T12:14:54;97744.88;;;9.89;100.00
4398;BME280;2213;49.720;7.296;2023-02-22T12:17:42;97738.28;;;9.93;100.00
4398;BME280;2213;49.720;7.296;2023-02-22T12:20:32;97737.97;;;10.03;100.00
4398;BME280;2213;49.720;7.296;2023-02-22T12:23:14;97743.44;;;10.08;100.00
4398;BME280;2213;49.720;7.296;2023-02-22T12:25:56;97738.63;;;10.11;100.00
4398;BME280;2213;49.720;7.296;2023-02-22T12:28:33;97739.09;;;10.15;100.00
4398;BME280;2213;49.720;7.296;2023-02-22T12:31:16;97736.50;;;10.22;100.00
4398;BME280;2213;49.720;7.296;2023-02-22T12:33:57;97729.94;;;10.32;100.00
4398;BME280;2213;49.720;7.296;2023-02-22T12:36:38;97733.00;;;10.42;100.00
4398;BME280;2213;49.720;7.296;2023-02-22T12:39:29;97729.41;;;10.43;100.00
4398;BME280;2213;49.720;7.296;2023-02-22T12:42:25;97721.16;;;10.46;100.00
4398;BME280;2213;49.720;7.296;2023-02-22T12:45:02;97725.81;;;10.51;100.00
4398;BME280;2213;49.720;7.296;2023-02-22T12:47:45;97725.44;;;10.54;100.00
4398;BME280;2213;49.720;7.296;2023-02-22T12:50:22;97728.66;;;10.63;100.00
4398;BME280;2213;49.720;7.296;2023-02-22T12:53:03;97728.28;;;10.66;100.00
4398;BME280;2213;49.720;7.296;2023-02-22T12:55:42;97729.72;;;10.75;100.00
4398;BME280;2213;49.720;7.296;2023-02-22T12:58:24;97735.38;;;10.78;100.00
4398;BME280;2213;49.720;7.296;2023-02-22T13:01:02;97731.97;;;10.84;100.00
4398;BME280;2213;49.720;7.296;2023-02-22T13:03:37;97730.16;;;10.85;100.00
4398;BME280;2213;49.720;7.296;2023-02-22T13:06:37;97732.59;;;10.86;100.00
4398;BME280;2213;49.720;7.296;2023-02-22T13:09:45;97729.59;;;10.89;100.00
4398;BME280;2213;49.720;7.296;2023-02-22T13:12:25;97731.00;;;10.92;100.00
4398;BME280;2213;49.720;7.296;2023-02-22T13:15:07;97728.56;;;10.97;100.00
4398;BME280;2213;49.720;7.296;2023-02-22T13:17:49;97732.63;;;10.99;100.00
4398;BME280;2213;49.720;7.296;2023-02-22T13:20:27;97731.44;;;11.02;100.00
4398;BME280;2213;49.720;7.296;2023-02-22T13:23:05;97726.78;;;11.04;100.00
4398;BME280;2213;49.720;7.296;2023-02-22T13:25:49;97730.22;;;11.04;100.00
4398;BME280;2213;49.720;7.296;2023-02-22T13:28:29;97718.56;;;11.07;100.00
4398;BME280;2213;49.720;7.296;2023-02-22T13:31:19;97714.53;;;11.11;100.00
4398;BME280;2213;49.720;7.296;2023-02-22T13:34:11;97714.16;;;11.14;100.00
4398;BME280;2213;49.720;7.296;2023-02-22T13:37:05;97711.72;;;11.19;100.00
4398;BME280;2213;49.720;7.296;2023-02-22T13:40:11;97720.59;;;11.25;100.00
4398;BME280;2213;49.720;7.296;2023-02-22T13:43:37;97709.13;;;11.26;100.00
4398;BME280;2213;49.720;7.296;2023-02-22T13:47:08;97710.34;;;11.30;100.00
4398;BME280;2213;49.720;7.296;2023-02-22T13:50:02;97709.13;;;11.32;100.00
4398;BME280;2213;49.720;7.296;2023-02-22T13:52:39;97705.31;;;11.35;100.00
4398;BME280;2213;49.720;7.296;2023-02-22T13:55:20;97711.34;;;11.35;100.00
4398;BME280;2213;49.720;7.296;2023-02-22T13:57:59;97711.16;;;11.30;100.00
4398;BME280;2213;49.720;7.296;2023-02-22T14:00:48;97710.16;;;11.31;100.00
4398;BME280;2213;49.720;7.296;2023-02-22T14:03:33;97707.53;;;11.31;100.00
4398;BME280;2213;49.720;7.296;2023-02-22T14:06:10;97705.69;;;11.32;100.00
4398;BME280;2213;49.720;7.296;2023-02-22T14:09:00;97710.94;;;11.32;100.00
4398;BME280;2213;49.720;7.296;2023-02-22T14:11:44;97710.75;;;11.33;100.00